createdAt,value
2022-07-27T00:00:49.065Z,15.61
2022-07-27T00:01:50.722Z,15.28
2022-07-27T00:02:51.527Z,15.61
2022-07-27T00:03:49.025Z,15.61
2022-07-27T00:04:49.058Z,15.44
2022-07-27T00:05:48.980Z,15.44
2022-07-27T00:06:48.983Z,15.61
2022-07-27T00:07:48.988Z,15.17
2022-07-27T00:08:48.993Z,15.17
2022-07-27T00:09:48.989Z,15.06
2022-07-27T00:10:48.984Z,15.17
2022-07-27T00:11:48.983Z,15.17
2022-07-27T00:12:48.993Z,14.89
2022-07-27T00:13:48.999Z,15.17
2022-07-27T00:14:48.994Z,15.17
2022-07-27T00:15:49.047Z,14.78
2022-07-27T00:16:49.064Z,15.06
2022-07-27T00:17:49.004Z,15.06
2022-07-27T00:18:48.993Z,15.17
2022-07-27T00:19:48.997Z,15.17
2022-07-27T00:20:49.011Z,15.17
2022-07-27T00:21:49.005Z,15.17
2022-07-27T00:22:48.997Z,15.17
2022-07-27T00:23:48.996Z,15.17
2022-07-27T00:24:49.002Z,15.17
2022-07-27T00:25:49.005Z,15.17
2022-07-27T00:26:48.998Z,15.17
2022-07-27T00:27:49.010Z,15.17
2022-07-27T00:28:49.008Z,15.44
2022-07-27T00:29:49.013Z,15.06
2022-07-27T00:30:49.017Z,15.17
2022-07-27T00:31:49.053Z,15.17
2022-07-27T00:32:49.004Z,15.17
2022-07-27T00:33:49.024Z,15.17
2022-07-27T00:34:49.006Z,15.17
2022-07-27T00:35:49.020Z,15.06
2022-07-27T00:36:49.020Z,15.06
2022-07-27T00:37:49.017Z,15.17
2022-07-27T00:38:49.022Z,14.89
2022-07-27T00:39:49.014Z,15.17
2022-07-27T00:40:49.019Z,15.06
2022-07-27T00:41:49.018Z,14.89
2022-07-27T00:42:49.018Z,15.17
2022-07-27T00:43:49.023Z,15.17
2022-07-27T00:44:49.021Z,15.06
2022-07-27T00:45:49.027Z,15.17
2022-07-27T00:46:49.166Z,15.06
2022-07-27T00:47:53.150Z,14.89
2022-07-27T00:48:49.097Z,14.78
2022-07-27T00:49:49.029Z,14.78
2022-07-27T00:50:49.030Z,14.78
2022-07-27T00:51:49.036Z,14.61
2022-07-27T00:52:49.023Z,14.78
2022-07-27T00:53:49.028Z,14.44
2022-07-27T00:54:49.022Z,14.78
2022-07-27T00:55:49.031Z,14.61
2022-07-27T00:56:49.030Z,14.78
2022-07-27T00:57:58.052Z,14.78
2022-07-27T00:58:49.038Z,14.78
2022-07-27T00:59:49.033Z,14.61
2022-07-27T01:00:49.038Z,14.61
2022-07-27T01:01:49.139Z,14.78
2022-07-27T01:02:49.146Z,14.61
2022-07-27T01:03:49.038Z,14.44
2022-07-27T01:04:49.042Z,14.78
2022-07-27T01:05:49.038Z,14.78
2022-07-27T01:06:49.041Z,14.78
2022-07-27T01:07:49.043Z,14.44
2022-07-27T01:08:49.041Z,14.78
2022-07-27T01:09:49.039Z,14.44
2022-07-27T01:10:49.044Z,14.78
2022-07-27T01:11:49.049Z,14.61
2022-07-27T01:12:49.044Z,14.61
2022-07-27T01:13:49.042Z,14.61
2022-07-27T01:14:49.038Z,14.44
2022-07-27T01:15:49.070Z,14.78
2022-07-27T01:16:49.048Z,14.61
2022-07-27T01:17:49.037Z,14.61
2022-07-27T01:18:49.044Z,14.44
2022-07-27T01:19:49.049Z,14.28
2022-07-27T01:20:49.055Z,14.28
2022-07-27T01:21:49.055Z,14.28
2022-07-27T01:22:49.042Z,14.28
2022-07-27T01:23:49.049Z,14
2022-07-27T01:24:49.054Z,14.11
2022-07-27T01:25:49.054Z,14
2022-07-27T01:26:49.047Z,14
2022-07-27T01:27:49.051Z,14
2022-07-27T01:28:49.049Z,14
2022-07-27T01:29:49.061Z,14.44
2022-07-27T01:30:49.100Z,14.28
2022-07-27T01:31:49.143Z,14.11
2022-07-27T01:32:49.060Z,14.11
2022-07-27T01:33:49.064Z,14.44
2022-07-27T01:34:49.054Z,14.28
2022-07-27T01:35:49.064Z,14.28
2022-07-27T01:36:49.071Z,14.28
2022-07-27T01:37:49.065Z,14.28
2022-07-27T01:38:49.061Z,14.28
2022-07-27T01:39:49.062Z,14.28
2022-07-27T01:40:49.064Z,14
2022-07-27T01:41:49.070Z,14.28
2022-07-27T01:42:49.065Z,14.28
2022-07-27T01:43:49.061Z,14.28
2022-07-27T01:44:49.068Z,14.28
2022-07-27T01:45:49.067Z,14.28
2022-07-27T01:46:49.122Z,14
2022-07-27T01:47:49.069Z,13.83
2022-07-27T01:48:49.133Z,14
2022-07-27T01:49:49.071Z,14.11
2022-07-27T01:50:49.074Z,14
2022-07-27T01:51:49.075Z,14.11
2022-07-27T01:52:49.069Z,14.11
2022-07-27T01:53:49.070Z,14.28
2022-07-27T01:54:49.077Z,14.28
2022-07-27T01:55:49.067Z,14.28
2022-07-27T01:56:49.079Z,14.28
2022-07-27T01:57:49.069Z,14.28
2022-07-27T01:58:49.071Z,14.28
2022-07-27T01:59:49.063Z,14.28
2022-07-27T02:00:49.093Z,14.44
2022-07-27T02:01:49.125Z,14.28
2022-07-27T02:02:49.070Z,14.44
2022-07-27T02:03:49.077Z,14.28
2022-07-27T02:04:49.123Z,14.44
2022-07-27T02:05:49.143Z,14.44
2022-07-27T02:06:49.089Z,14.44
2022-07-27T02:07:49.076Z,14.44
2022-07-27T02:08:49.099Z,14.61
2022-07-27T02:09:49.076Z,14.44
2022-07-27T02:10:49.074Z,14.44
2022-07-27T02:11:49.107Z,14.78
2022-07-27T02:12:49.076Z,14.28
2022-07-27T02:13:49.070Z,14.28
2022-07-27T02:14:49.080Z,14.61
2022-07-27T02:15:49.143Z,14.44
2022-07-27T02:16:50.032Z,14.61
2022-07-27T02:17:49.073Z,14.44
2022-07-27T02:18:49.097Z,14.61
2022-07-27T02:19:49.080Z,14.61
2022-07-27T02:20:49.079Z,14.28
2022-07-27T02:21:49.082Z,14.61
2022-07-27T02:22:49.079Z,14.28
2022-07-27T02:23:49.082Z,14.44
2022-07-27T02:24:49.072Z,14.61
2022-07-27T02:25:49.085Z,14.78
2022-07-27T02:26:49.395Z,14.78
2022-07-27T02:27:49.084Z,14.78
2022-07-27T02:28:49.074Z,14.44
2022-07-27T02:29:49.083Z,14.61
2022-07-27T02:30:49.092Z,14.61
2022-07-27T02:31:49.080Z,14.78
2022-07-27T02:32:49.130Z,14.61
2022-07-27T02:33:49.089Z,14.28
2022-07-27T02:34:49.075Z,14.28
2022-07-27T02:35:49.094Z,14.28
2022-07-27T02:36:49.075Z,14.28
2022-07-27T02:37:49.211Z,14.44
2022-07-27T02:38:49.086Z,14.28
2022-07-27T02:39:49.095Z,14.28
2022-07-27T02:40:49.084Z,14.61
2022-07-27T02:41:49.084Z,14.61
2022-07-27T02:42:49.082Z,14.44
2022-07-27T02:43:49.082Z,14.61
2022-07-27T02:44:49.083Z,14.78
2022-07-27T02:45:49.121Z,14.78
2022-07-27T02:46:49.181Z,14.61
2022-07-27T02:47:49.089Z,14.78
2022-07-27T02:48:49.091Z,14.61
2022-07-27T02:49:49.090Z,14.61
2022-07-27T02:50:49.083Z,14.61
2022-07-27T02:51:49.081Z,14.28
2022-07-27T02:52:49.086Z,14.61
2022-07-27T02:53:49.089Z,14.28
2022-07-27T02:54:49.088Z,14.61
2022-07-27T02:55:49.089Z,14.28
2022-07-27T02:56:49.090Z,14.61
2022-07-27T02:57:49.089Z,14.61
2022-07-27T02:58:49.086Z,14.78
2022-07-27T02:59:49.090Z,14.61
2022-07-27T03:00:49.087Z,14.28
2022-07-27T03:01:49.171Z,14.61
2022-07-27T03:02:49.090Z,14.44
2022-07-27T03:03:49.097Z,14.61
2022-07-27T03:04:49.172Z,14.44
2022-07-27T03:05:49.099Z,14.28
2022-07-27T03:06:49.087Z,14.61
2022-07-27T03:07:49.079Z,14.44
2022-07-27T03:08:49.085Z,14.61
2022-07-27T03:09:52.430Z,14.28
2022-07-27T03:10:49.089Z,14.28
2022-07-27T03:11:49.090Z,14.44
2022-07-27T03:12:49.077Z,14.28
2022-07-27T03:13:49.087Z,14.44
2022-07-27T03:14:49.094Z,14.61
2022-07-27T03:15:49.159Z,14.28
2022-07-27T03:16:49.100Z,14.61
2022-07-27T03:17:49.088Z,14.61
2022-07-27T03:18:49.816Z,14.61
2022-07-27T03:19:49.087Z,14.28
2022-07-27T03:20:49.091Z,14.61
2022-07-27T03:21:49.093Z,14.61
2022-07-27T03:22:49.094Z,14.61
2022-07-27T03:23:49.094Z,14.61
2022-07-27T03:24:49.092Z,14.89
2022-07-27T03:25:49.098Z,14.78
2022-07-27T03:26:49.090Z,14.78
2022-07-27T03:27:49.105Z,14.78
2022-07-27T03:28:49.101Z,14.78
2022-07-27T03:29:49.092Z,14.61
2022-07-27T03:30:49.138Z,14.78
2022-07-27T03:31:49.098Z,14.78
2022-07-27T03:32:49.100Z,14.78
2022-07-27T03:33:49.108Z,14.89
2022-07-27T03:34:49.097Z,14.78
2022-07-27T03:35:49.104Z,14.61
2022-07-27T03:36:49.107Z,14.78
2022-07-27T03:37:49.107Z,14.61
2022-07-27T03:38:49.106Z,14.44
2022-07-27T03:39:49.120Z,14.44
2022-07-27T03:40:49.117Z,14.61
2022-07-27T03:41:49.119Z,14.61
2022-07-27T03:42:49.117Z,14.61
2022-07-27T03:43:49.117Z,14.44
2022-07-27T03:44:49.124Z,14.61
2022-07-27T03:45:49.238Z,14.44
2022-07-27T03:46:49.119Z,14.78
2022-07-27T03:47:49.130Z,14.28
2022-07-27T03:48:49.152Z,14.44
2022-07-27T03:49:49.137Z,14.44
2022-07-27T03:50:49.116Z,14.44
2022-07-27T03:51:49.125Z,14.61
2022-07-27T03:52:49.124Z,14.61
2022-07-27T03:53:49.133Z,14.78
2022-07-27T03:54:49.121Z,14.61
2022-07-27T03:55:49.128Z,14.61
2022-07-27T03:56:49.139Z,14.61
2022-07-27T03:57:49.130Z,14.78
2022-07-27T03:58:49.135Z,14.61
2022-07-27T03:59:49.137Z,14.78
2022-07-27T04:00:49.178Z,14.78
2022-07-27T04:01:49.130Z,14.78
2022-07-27T04:02:49.208Z,14.78
2022-07-27T04:03:49.138Z,14.78
2022-07-27T04:04:49.144Z,14.89
2022-07-27T04:05:49.134Z,14.44
2022-07-27T04:06:49.140Z,14.44
2022-07-27T04:07:49.142Z,14.78
2022-07-27T04:08:49.145Z,14.89
2022-07-27T04:09:49.145Z,14.89
2022-07-27T04:10:49.139Z,14.78
2022-07-27T04:11:50.849Z,14.78
2022-07-27T04:12:49.156Z,14.78
2022-07-27T04:13:49.147Z,14.78
2022-07-27T04:14:49.166Z,14.44
2022-07-27T04:15:49.149Z,14.89
2022-07-27T04:16:49.205Z,14.89
2022-07-27T04:17:53.821Z,14.78
2022-07-27T04:18:49.160Z,14.61
2022-07-27T04:19:49.161Z,14.78
2022-07-27T04:20:49.166Z,14.78
2022-07-27T04:21:49.163Z,14.78
2022-07-27T04:22:49.179Z,14.78
2022-07-27T04:23:49.173Z,14.78
2022-07-27T04:24:49.178Z,14.78
2022-07-27T04:25:49.176Z,14.61
2022-07-27T04:26:49.174Z,14.78
2022-07-27T04:27:49.174Z,15.06
2022-07-27T04:28:49.177Z,14.89
2022-07-27T04:29:49.177Z,14.78
2022-07-27T04:30:49.228Z,15.17
2022-07-27T04:31:49.182Z,15.06
2022-07-27T04:32:49.182Z,15.06
2022-07-27T04:33:49.183Z,15.17
2022-07-27T04:34:49.189Z,14.89
2022-07-27T04:35:49.185Z,15.06
2022-07-27T04:36:49.183Z,15.06
2022-07-27T04:37:57.984Z,15.17
2022-07-27T04:38:49.186Z,15.06
2022-07-27T04:39:49.188Z,15.06
2022-07-27T04:40:49.187Z,15.17
2022-07-27T04:41:49.180Z,15.17
2022-07-27T04:42:49.632Z,14.78
2022-07-27T04:43:49.181Z,15.06
2022-07-27T04:44:49.203Z,15.17
2022-07-27T04:45:49.248Z,15.17
2022-07-27T04:46:49.191Z,15.06
2022-07-27T04:47:49.197Z,15.17
2022-07-27T04:48:49.747Z,15.17
2022-07-27T04:49:49.205Z,15.28
2022-07-27T04:50:49.188Z,15.17
2022-07-27T04:51:49.197Z,15.44
2022-07-27T04:52:49.202Z,15.44
2022-07-27T04:53:52.279Z,15.28
2022-07-27T04:54:49.201Z,15.17
2022-07-27T04:55:49.199Z,15.17
2022-07-27T04:56:49.195Z,15.17
2022-07-27T04:57:49.208Z,15.17
2022-07-27T04:58:49.205Z,15.44
2022-07-27T04:59:49.205Z,15.28
2022-07-27T05:00:49.291Z,15.61
2022-07-27T05:01:49.253Z,15.44
2022-07-27T05:02:49.210Z,15.28
2022-07-27T05:03:49.266Z,15.28
2022-07-27T05:04:49.216Z,15.17
2022-07-27T05:05:49.568Z,15.17
2022-07-27T05:06:49.222Z,15.28
2022-07-27T05:07:49.219Z,15.17
2022-07-27T05:08:49.213Z,15.28
2022-07-27T05:09:49.223Z,15.17
2022-07-27T05:10:49.214Z,15.28
2022-07-27T05:11:50.774Z,15.44
2022-07-27T05:12:49.238Z,15.61
2022-07-27T05:13:49.223Z,15.61
2022-07-27T05:14:49.220Z,15.61
2022-07-27T05:15:54.415Z,15.61
2022-07-27T05:16:49.279Z,15.61
2022-07-27T05:17:49.232Z,15.61
2022-07-27T05:18:49.229Z,15.44
2022-07-27T05:19:49.247Z,15.61
2022-07-27T05:20:49.339Z,15.78
2022-07-27T05:21:49.228Z,15.61
2022-07-27T05:22:49.224Z,15.78
2022-07-27T05:23:49.227Z,15.61
2022-07-27T05:24:49.227Z,15.06
2022-07-27T05:25:49.232Z,14.78
2022-07-27T05:26:49.230Z,15.17
2022-07-27T05:27:53.781Z,15.17
2022-07-27T05:28:49.235Z,15.17
2022-07-27T05:29:49.232Z,15.28
2022-07-27T05:30:49.229Z,15.28
2022-07-27T05:31:49.315Z,15.28
2022-07-27T05:32:49.229Z,15.44
2022-07-27T05:33:51.383Z,15.61
2022-07-27T05:34:49.234Z,15.28
2022-07-27T05:35:49.237Z,15.44
2022-07-27T05:36:49.238Z,15.61
2022-07-27T05:37:49.239Z,15.78
2022-07-27T05:38:49.238Z,15.89
2022-07-27T05:39:49.244Z,16.06
2022-07-27T05:40:49.246Z,15.89
2022-07-27T05:41:49.668Z,16.06
2022-07-27T05:42:49.245Z,16.06
2022-07-27T05:43:49.250Z,16.06
2022-07-27T05:44:49.249Z,16.06
2022-07-27T05:45:49.369Z,16.06
2022-07-27T05:46:49.237Z,16.22
2022-07-27T05:47:49.256Z,16.06
2022-07-27T05:48:49.318Z,16.22
2022-07-27T05:49:49.260Z,16.22
2022-07-27T05:50:49.254Z,16.22
2022-07-27T05:51:49.252Z,16.39
2022-07-27T05:52:49.270Z,16.22
2022-07-27T05:53:49.254Z,16.39
2022-07-27T05:54:49.250Z,16.39
2022-07-27T05:55:57.895Z,16.06
2022-07-27T05:56:49.262Z,15.78
2022-07-27T05:57:49.260Z,15.89
2022-07-27T05:58:49.259Z,15.89
2022-07-27T05:59:49.256Z,15.89
2022-07-27T06:00:49.284Z,16.22
2022-07-27T06:01:49.261Z,16.06
2022-07-27T06:02:49.261Z,16.39
2022-07-27T06:03:49.313Z,16.06
2022-07-27T06:04:49.259Z,16.22
2022-07-27T06:05:49.260Z,16.22
2022-07-27T06:06:49.267Z,16.39
2022-07-27T06:07:49.771Z,16.22
2022-07-27T06:08:49.263Z,16.39
2022-07-27T06:09:49.266Z,16.56
2022-07-27T06:10:49.263Z,17
2022-07-27T06:11:49.268Z,17.33
2022-07-27T06:12:49.272Z,17.5
2022-07-27T06:13:49.261Z,17.5
2022-07-27T06:14:50.852Z,17.67
2022-07-27T06:15:49.272Z,17.83
2022-07-27T06:16:49.319Z,17.5
2022-07-27T06:17:49.282Z,17.5
2022-07-27T06:18:49.271Z,17.17
2022-07-27T06:19:49.273Z,17
2022-07-27T06:20:49.267Z,17
2022-07-27T06:21:53.538Z,17
2022-07-27T06:22:49.280Z,17.17
2022-07-27T06:23:49.269Z,17
2022-07-27T06:24:49.269Z,17.5
2022-07-27T06:25:49.267Z,17.5
2022-07-27T06:26:49.264Z,17.67
2022-07-27T06:27:49.271Z,17.83
2022-07-27T06:28:49.268Z,17.83
2022-07-27T06:29:49.277Z,18.17
2022-07-27T06:30:49.271Z,17.94
2022-07-27T06:31:49.349Z,18.28
2022-07-27T06:32:49.273Z,18.17
2022-07-27T06:33:50.438Z,17.94
2022-07-27T06:34:49.273Z,17.94
2022-07-27T06:35:49.287Z,17.94
2022-07-27T06:36:49.276Z,17.83
2022-07-27T06:37:49.280Z,17.67
2022-07-27T06:38:49.268Z,17.83
2022-07-27T06:39:49.279Z,18.44
2022-07-27T06:40:49.277Z,18.44
2022-07-27T06:41:49.273Z,18.94
2022-07-27T06:42:49.279Z,18.94
2022-07-27T06:43:49.281Z,18.78
2022-07-27T06:44:49.294Z,18.78
2022-07-27T06:45:49.286Z,19.56
2022-07-27T06:46:49.332Z,20.22
2022-07-27T06:47:50.181Z,20.33
2022-07-27T06:48:49.352Z,20.72
2022-07-27T06:49:49.287Z,20.83
2022-07-27T06:50:49.300Z,22.56
2022-07-27T06:51:49.295Z,22.06
2022-07-27T06:52:49.301Z,22.06
2022-07-27T06:53:49.292Z,23.44
2022-07-27T06:54:49.294Z,22.39
2022-07-27T06:55:49.354Z,22.06
2022-07-27T06:56:49.293Z,22.22
2022-07-27T06:57:49.303Z,21.89
2022-07-27T06:58:49.298Z,20.22
2022-07-27T06:59:49.309Z,20.56
2022-07-27T07:00:49.392Z,20.56
2022-07-27T07:01:49.352Z,20.72
2022-07-27T07:02:49.302Z,19.94
2022-07-27T07:03:49.379Z,19.94
2022-07-27T07:04:49.307Z,19.94
2022-07-27T07:05:49.309Z,20.22
2022-07-27T07:06:49.306Z,21.39
2022-07-27T07:07:49.317Z,22.06
2022-07-27T07:08:49.319Z,22.39
2022-07-27T07:09:49.315Z,21.22
2022-07-27T07:10:49.316Z,20.83
2022-07-27T07:11:49.318Z,20.33
2022-07-27T07:12:49.322Z,19.06
2022-07-27T07:13:49.317Z,19.56
2022-07-27T07:14:49.338Z,19.06
2022-07-27T07:15:49.344Z,18.44
2022-07-27T07:16:49.381Z,18.44
2022-07-27T07:17:49.326Z,18.44
2022-07-27T07:18:52.386Z,18.44
2022-07-27T07:19:49.331Z,18.44
2022-07-27T07:20:49.332Z,18.78
2022-07-27T07:21:49.333Z,18.78
2022-07-27T07:22:49.323Z,18.78
2022-07-27T07:23:49.336Z,19.44
2022-07-27T07:24:49.334Z,19.78
2022-07-27T07:25:49.336Z,19.94
2022-07-27T07:26:49.330Z,19.78
2022-07-27T07:27:49.318Z,19.94
2022-07-27T07:28:49.332Z,19.78
2022-07-27T07:29:49.333Z,19.94
2022-07-27T07:30:49.326Z,19.44
2022-07-27T07:31:49.381Z,19.56
2022-07-27T07:32:49.340Z,19.78
2022-07-27T07:33:49.332Z,19.78
2022-07-27T07:34:49.336Z,19.94
2022-07-27T07:36:08.885Z,19.94
2022-07-27T07:36:49.341Z,19.78
2022-07-27T07:37:50.384Z,19.78
2022-07-27T07:38:49.338Z,19.44
2022-07-27T07:39:49.369Z,19.94
2022-07-27T07:40:49.344Z,18.94
2022-07-27T07:41:49.342Z,19.28
2022-07-27T07:42:49.354Z,19.06
2022-07-27T07:43:49.357Z,19.44
2022-07-27T07:44:49.347Z,19.94
2022-07-27T07:45:51.266Z,19.94
2022-07-27T07:46:49.376Z,19.44
2022-07-27T07:47:49.357Z,19.94
2022-07-27T07:48:49.440Z,19.94
2022-07-27T07:49:49.422Z,19.56
2022-07-27T07:50:51.691Z,19.44
2022-07-27T07:51:49.358Z,19.44
2022-07-27T07:52:49.356Z,19.44
2022-07-27T07:53:49.359Z,18.94
2022-07-27T07:54:49.357Z,18.61
2022-07-27T07:55:49.363Z,18.94
2022-07-27T07:56:49.362Z,19.44
2022-07-27T07:57:49.358Z,18.94
2022-07-27T07:58:49.362Z,18.78
2022-07-27T07:59:49.366Z,19.28
2022-07-27T08:00:49.365Z,19.28
2022-07-27T08:01:49.391Z,19.06
2022-07-27T08:02:49.414Z,19.44
2022-07-27T08:03:51.160Z,19.94
2022-07-27T08:04:49.365Z,20.11
2022-07-27T08:05:49.372Z,20.33
2022-07-27T08:06:49.378Z,20.83
2022-07-27T08:07:49.373Z,21
2022-07-27T08:08:49.371Z,20.56
2022-07-27T08:09:49.390Z,20.83
2022-07-27T08:10:49.387Z,20.83
2022-07-27T08:11:49.380Z,20.33
2022-07-27T08:12:49.385Z,19.94
2022-07-27T08:13:49.388Z,19.56
2022-07-27T08:14:49.386Z,20.22
2022-07-27T08:15:49.405Z,20.11
2022-07-27T08:16:49.388Z,20.22
2022-07-27T08:17:49.392Z,20.56
2022-07-27T08:18:49.385Z,20.33
2022-07-27T08:19:49.385Z,20.22
2022-07-27T08:20:49.391Z,19.78
2022-07-27T08:21:49.399Z,19.56
2022-07-27T08:22:49.390Z,19.44
2022-07-27T08:23:49.393Z,19.06
2022-07-27T08:24:49.395Z,18.94
2022-07-27T08:25:49.414Z,18.94
2022-07-27T08:26:49.401Z,19.44
2022-07-27T08:27:49.397Z,19.28
2022-07-27T08:28:49.407Z,19.28
2022-07-27T08:29:51.765Z,19.06
2022-07-27T08:30:49.543Z,19.06
2022-07-27T08:31:51.885Z,19.56
2022-07-27T08:32:49.399Z,19.44
2022-07-27T08:33:49.403Z,20.11
2022-07-27T08:34:49.403Z,20.22
2022-07-27T08:35:49.408Z,20.72
2022-07-27T08:36:49.405Z,20.83
2022-07-27T08:37:49.425Z,21.39
2022-07-27T08:38:49.421Z,20.83
2022-07-27T08:40:49.833Z,20.33
2022-07-27T08:41:49.416Z,20.78
2022-07-27T08:42:49.438Z,20.39
2022-07-27T08:43:49.415Z,20.89
2022-07-27T08:44:49.424Z,21
2022-07-27T08:45:49.417Z,20.94
2022-07-27T08:46:49.519Z,21.56
2022-07-27T08:47:49.427Z,21.56
2022-07-27T08:48:49.536Z,21.56
2022-07-27T08:49:49.797Z,21.83
2022-07-27T08:50:49.421Z,22.06
2022-07-27T08:51:49.426Z,22.06
2022-07-27T08:52:49.431Z,22.22
2022-07-27T08:53:52.825Z,21.56
2022-07-27T08:54:49.429Z,21.56
2022-07-27T08:55:49.428Z,22.22
2022-07-27T08:56:49.441Z,22.78
2022-07-27T08:57:49.429Z,23.11
2022-07-27T08:58:49.442Z,23.67
2022-07-27T08:59:49.437Z,23.67
2022-07-27T09:00:49.435Z,23.11
2022-07-27T09:01:49.449Z,22.61
2022-07-27T09:02:49.519Z,22.39
2022-07-27T09:03:49.540Z,21.56
2022-07-27T09:04:49.437Z,21.39
2022-07-27T09:05:49.439Z,21.56
2022-07-27T09:06:52.921Z,22.39
2022-07-27T09:07:49.430Z,22.61
2022-07-27T09:08:53.188Z,23.11
2022-07-27T09:09:49.437Z,22.22
2022-07-27T09:10:49.440Z,21.56
2022-07-27T09:11:49.443Z,22.06
2022-07-27T09:12:49.438Z,22.06
2022-07-27T09:13:49.441Z,21.72
2022-07-27T09:14:52.972Z,21.39
2022-07-27T09:16:16.057Z,20.83
2022-07-27T09:17:46.307Z,21.06
2022-07-27T09:17:50.117Z,20.83
2022-07-27T09:18:49.453Z,21.22
2022-07-27T09:19:49.452Z,20.83
2022-07-27T09:20:49.456Z,21.06
2022-07-27T09:21:49.452Z,21.06
2022-07-27T09:22:49.453Z,20.39
2022-07-27T09:23:49.459Z,20.22
2022-07-27T09:24:49.453Z,20.56
2022-07-27T09:26:11.663Z,20.83
2022-07-27T09:26:49.452Z,21.06
2022-07-27T09:27:49.465Z,21.39
2022-07-27T09:28:49.457Z,21.39
2022-07-27T09:29:49.459Z,20.83
2022-07-27T09:30:49.514Z,20.83
2022-07-27T09:31:49.482Z,21.06
2022-07-27T09:32:52.703Z,20.72
2022-07-27T09:33:49.471Z,21.06
2022-07-27T09:34:49.455Z,21.22
2022-07-27T09:35:49.458Z,20.83
2022-07-27T09:36:49.462Z,20.83
2022-07-27T09:37:49.467Z,21.06
2022-07-27T09:38:53.551Z,21.06
2022-07-27T09:39:49.461Z,20.72
2022-07-27T09:40:49.464Z,21.06
2022-07-27T09:41:49.469Z,21.06
2022-07-27T09:43:05.369Z,21.56
2022-07-27T09:44:28.958Z,21.72
2022-07-27T09:44:53.512Z,21.56
2022-07-27T09:45:51.626Z,21.72
2022-07-27T09:46:49.532Z,22.06
2022-07-27T09:47:49.474Z,22.22
2022-07-27T09:48:49.511Z,21.56
2022-07-27T09:49:49.477Z,21.06
2022-07-27T09:51:01.713Z,21.06
2022-07-27T09:51:59.811Z,21.06
2022-07-27T09:52:49.493Z,21.22
2022-07-27T09:53:49.492Z,21.89
2022-07-27T09:54:49.486Z,22.22
2022-07-27T09:55:49.480Z,22.06
2022-07-27T09:56:49.485Z,22.06
2022-07-27T09:57:49.483Z,22.61
2022-07-27T09:58:49.480Z,23.11
2022-07-27T09:59:49.490Z,23.11
2022-07-27T10:00:49.485Z,23.44
2022-07-27T10:01:54.441Z,23.67
2022-07-27T10:02:49.485Z,23.67
2022-07-27T10:03:49.488Z,24
2022-07-27T10:04:49.571Z,23.44
2022-07-27T10:05:49.493Z,23.67
2022-07-27T10:07:02.009Z,23.28
2022-07-27T10:07:49.495Z,23.11
2022-07-27T10:08:49.494Z,23.44
2022-07-27T10:09:49.490Z,23.67
2022-07-27T10:10:49.496Z,23.67
2022-07-27T10:11:49.491Z,23.67
2022-07-27T10:12:54.456Z,23.11
2022-07-27T10:13:49.512Z,22.39
2022-07-27T10:14:49.497Z,22.06
2022-07-27T10:15:49.552Z,22.39
2022-07-27T10:16:49.505Z,22.61
2022-07-27T10:17:49.508Z,22.39
2022-07-27T10:18:50.729Z,22.39
2022-07-27T10:19:49.512Z,22.22
2022-07-27T10:20:49.511Z,22.39
2022-07-27T10:21:49.508Z,22.61
2022-07-27T10:22:49.514Z,22.61
2022-07-27T10:23:49.512Z,23.11
2022-07-27T10:24:53.119Z,23.11
2022-07-27T10:25:49.513Z,23.11
2022-07-27T10:26:49.510Z,22.78
2022-07-27T10:27:49.512Z,22.06
2022-07-27T10:28:49.515Z,22.61
2022-07-27T10:29:49.522Z,22.39
2022-07-27T10:30:54.175Z,22.61
2022-07-27T10:31:49.516Z,23.11
2022-07-27T10:32:49.513Z,22.94
2022-07-27T10:33:49.516Z,22.61
2022-07-27T10:34:49.505Z,22.22
2022-07-27T10:35:49.524Z,22.94
2022-07-27T10:36:49.518Z,22.61
2022-07-27T10:37:49.509Z,22.94
2022-07-27T10:38:49.517Z,22.94
2022-07-27T10:39:49.522Z,22.94
2022-07-27T10:40:49.521Z,23.28
2022-07-27T10:41:49.522Z,23.11
2022-07-27T10:42:54.219Z,23.11
2022-07-27T10:43:49.528Z,22.94
2022-07-27T10:44:49.521Z,23.28
2022-07-27T10:45:50.543Z,23.67
2022-07-27T10:46:49.560Z,23.28
2022-07-27T10:47:49.524Z,23.83
2022-07-27T10:48:49.614Z,23.67
2022-07-27T10:49:49.533Z,23.11
2022-07-27T10:50:49.519Z,23.11
2022-07-27T10:51:49.519Z,23.28
2022-07-27T10:52:49.528Z,23.11
2022-07-27T10:54:11.333Z,22.61
2022-07-27T10:54:52.727Z,23.11
2022-07-27T10:55:49.527Z,22.94
2022-07-27T10:56:49.526Z,22.61
2022-07-27T10:57:49.531Z,22.61
2022-07-27T10:58:49.529Z,22.39
2022-07-27T11:00:53.906Z,22.61
2022-07-27T11:01:49.578Z,22.61
2022-07-27T11:02:49.557Z,21.89
2022-07-27T11:03:49.544Z,21.06
2022-07-27T11:04:49.611Z,21.56
2022-07-27T11:06:26.396Z,21.72
2022-07-27T11:07:22.882Z,21.72
2022-07-27T11:08:13.704Z,21.56
2022-07-27T11:09:01.897Z,21.61
2022-07-27T11:10:03.370Z,21.22
2022-07-27T11:10:49.539Z,21.39
2022-07-27T11:11:49.531Z,21.5
2022-07-27T11:12:49.530Z,21.39
2022-07-27T11:13:49.536Z,21.22
2022-07-27T11:14:49.556Z,21.06
2022-07-27T11:15:49.544Z,21.22
2022-07-27T11:16:55.789Z,20.56
2022-07-27T11:18:00.294Z,20.39
2022-07-27T11:18:52.965Z,20.28
2022-07-27T11:19:49.528Z,20.89
2022-07-27T11:20:49.533Z,20.78
2022-07-27T11:21:49.525Z,20.39
2022-07-27T11:23:51.156Z,20.78
2022-07-27T11:24:49.537Z,20.78
2022-07-27T11:25:49.540Z,20.78
2022-07-27T11:26:49.601Z,20.78
2022-07-27T11:27:49.545Z,20.56
2022-07-27T11:28:49.537Z,20.28
2022-07-27T11:29:49.531Z,20.28
2022-07-27T11:30:49.624Z,20.28
2022-07-27T11:31:58.224Z,20.28
2022-07-27T11:32:49.541Z,20.56
2022-07-27T11:33:49.542Z,20.28
2022-07-27T11:34:49.544Z,20.28
2022-07-27T11:35:49.540Z,20.28
2022-07-27T11:36:49.542Z,20.28
2022-07-27T11:37:49.542Z,20.28
2022-07-27T11:38:49.534Z,20.56
2022-07-27T11:40:28.145Z,20.11
2022-07-27T11:41:06.946Z,20.28
2022-07-27T11:42:08.285Z,20.11
2022-07-27T11:42:49.540Z,20.28
2022-07-27T11:43:49.539Z,20.28
2022-07-27T11:44:49.544Z,20.11
2022-07-27T11:45:49.621Z,19.83
2022-07-27T11:46:49.554Z,20.11
2022-07-27T11:47:49.544Z,20.11
2022-07-27T11:49:05.833Z,20
2022-07-27T11:49:49.594Z,19.83
2022-07-27T11:50:49.547Z,19.83
2022-07-27T11:51:49.554Z,19.61
2022-07-27T11:52:49.547Z,19.61
2022-07-27T11:53:49.552Z,19.83
2022-07-27T11:54:49.554Z,19.56
2022-07-27T11:55:49.554Z,19.39
2022-07-27T11:56:49.553Z,19.61
2022-07-27T11:57:49.542Z,19.44
2022-07-27T11:58:49.547Z,19.33
2022-07-27T11:59:49.565Z,19.33
2022-07-27T12:00:49.546Z,19.33
2022-07-27T12:01:49.548Z,19.61
2022-07-27T12:02:49.590Z,19.11
2022-07-27T12:03:49.554Z,19.11
2022-07-27T12:04:49.650Z,19.44
2022-07-27T12:05:49.568Z,19.11
2022-07-27T12:06:49.553Z,19.44
2022-07-27T12:07:49.559Z,19.11
2022-07-27T12:08:49.549Z,19.11
2022-07-27T12:09:49.544Z,18.67
2022-07-27T12:10:49.550Z,19.11
2022-07-27T12:11:49.551Z,19.11
2022-07-27T12:12:49.553Z,19.11
2022-07-27T12:13:49.552Z,19.11
2022-07-27T12:14:49.555Z,18.94
2022-07-27T12:15:49.549Z,19.11
2022-07-27T12:16:49.603Z,19.11
2022-07-27T12:17:49.549Z,19.11
2022-07-27T12:18:49.554Z,19.11
2022-07-27T12:19:49.546Z,18.94
2022-07-27T12:20:49.561Z,19.11
2022-07-27T12:21:49.546Z,18.94
2022-07-27T12:22:49.546Z,19.11
2022-07-27T12:23:49.563Z,19.44
2022-07-27T12:24:49.554Z,19.61
2022-07-27T12:25:49.554Z,19.83
2022-07-27T12:26:49.559Z,19.94
2022-07-27T12:27:49.547Z,19.61
2022-07-27T12:28:49.559Z,20.11
2022-07-27T12:29:49.549Z,20.56
2022-07-27T12:30:49.683Z,20.72
2022-07-27T12:31:49.558Z,20.83
2022-07-27T12:32:54.048Z,20.39
2022-07-27T12:33:51.148Z,20.56
2022-07-27T12:34:49.551Z,20.39
2022-07-27T12:35:49.552Z,20.22
2022-07-27T12:36:49.557Z,20.56
2022-07-27T12:37:49.566Z,20.56
2022-07-27T12:38:49.555Z,20.72
2022-07-27T12:39:49.554Z,21.06
2022-07-27T12:40:49.552Z,20.72
2022-07-27T12:41:49.559Z,20.72
2022-07-27T12:42:49.561Z,20.83
2022-07-27T12:43:49.562Z,21.06
2022-07-27T12:44:49.559Z,21.22
2022-07-27T12:45:49.621Z,21.06
2022-07-27T12:46:49.564Z,21.06
2022-07-27T12:47:49.564Z,21.56
2022-07-27T12:48:49.634Z,21.56
2022-07-27T12:49:49.557Z,21.39
2022-07-27T12:50:49.564Z,21.39
2022-07-27T12:51:49.556Z,21.56
2022-07-27T12:52:49.554Z,21.56
2022-07-27T12:53:49.557Z,21.56
2022-07-27T12:54:49.564Z,21.56
2022-07-27T12:55:49.566Z,21.72
2022-07-27T12:56:49.557Z,21.39
2022-07-27T12:57:57.287Z,21.72